createdAt,value
2023-02-06T00:00:53.165Z,101139.91
2023-02-06T00:03:20.482Z,101140.78
2023-02-06T00:05:58.409Z,101139.91
2023-02-06T00:08:26.423Z,101136.44
2023-02-06T00:10:53.295Z,101141.66
2023-02-06T00:13:20.244Z,101154.72
2023-02-06T00:15:47.098Z,101146.88
2023-02-06T00:18:13.806Z,101144.25
2023-02-06T00:20:40.414Z,101151.22
2023-02-06T00:23:07.095Z,101146.00
2023-02-06T00:25:33.998Z,101153.81
2023-02-06T00:28:00.741Z,101149.47
2023-02-06T00:30:27.455Z,101152.94
2023-02-06T00:32:54.117Z,101157.31
2023-02-06T00:35:20.902Z,101158.19
2023-02-06T00:37:47.576Z,101159.09
2023-02-06T00:40:14.196Z,101159.94
2023-02-06T00:42:40.856Z,101159.94
2023-02-06T00:45:08.337Z,101166.06
2023-02-06T00:47:35.619Z,101167.75
2023-02-06T00:50:03.084Z,101176.44
2023-02-06T00:52:29.650Z,101172.94
2023-02-06T00:54:56.853Z,101168.63
2023-02-06T00:57:23.537Z,101168.63
2023-02-06T00:59:50.228Z,101172.94
2023-02-06T01:02:16.828Z,101181.63
2023-02-06T01:04:43.426Z,101175.53
2023-02-06T01:07:10.014Z,101178.16
2023-02-06T01:09:36.735Z,101172.97
2023-02-06T01:12:03.474Z,101180.81
2023-02-06T01:14:30.167Z,101172.09
2023-02-06T01:16:56.868Z,101170.38
2023-02-06T01:19:23.501Z,101164.28
2023-02-06T01:21:50.122Z,101165.16
2023-02-06T01:24:16.758Z,101170.34
2023-02-06T01:26:43.581Z,101165.09
2023-02-06T01:29:10.241Z,101172.94
2023-02-06T01:31:36.908Z,101164.22
2023-02-06T01:34:03.737Z,101165.97
2023-02-06T01:36:30.366Z,101165.09
2023-02-06T01:38:57.042Z,101163.34
2023-02-06T01:41:24.120Z,101155.56
2023-02-06T01:44:12.583Z,101158.19
2023-02-06T01:46:41.428Z,101154.69
2023-02-06T01:49:13.766Z,101154.66
2023-02-06T01:51:40.970Z,101158.19
2023-02-06T01:54:09.299Z,101152.91
2023-02-06T01:56:47.116Z,101153.78
2023-02-06T01:59:14.069Z,101164.22
2023-02-06T02:01:41.847Z,101159.88
2023-02-06T02:04:14.911Z,101159.00
2023-02-06T02:06:41.933Z,101163.34
2023-02-06T02:09:09.310Z,101159.00
2023-02-06T02:11:38.383Z,101172.03
2023-02-06T02:14:08.127Z,101163.34
2023-02-06T02:16:37.515Z,101165.06
2023-02-06T02:19:22.402Z,101159.88
2023-02-06T02:22:10.422Z,101155.56
2023-02-06T02:25:07.782Z,101159.91
2023-02-06T02:27:44.513Z,101145.94
2023-02-06T02:30:29.818Z,101141.59
2023-02-06T02:33:02.448Z,101138.19
2023-02-06T02:35:32.295Z,101134.72
2023-02-06T02:38:13.247Z,101135.56
2023-02-06T02:41:18.366Z,101130.34
2023-02-06T02:43:58.245Z,101132.06
2023-02-06T02:46:42.839Z,101119.03
2023-02-06T02:49:13.958Z,101119.09
2023-02-06T02:51:42.088Z,101117.38
2023-02-06T02:54:09.528Z,101121.75
2023-02-06T02:56:36.576Z,101119.97
2023-02-06T02:59:12.087Z,101117.34
2023-02-06T03:01:48.560Z,101117.34
2023-02-06T03:04:27.599Z,101116.41
2023-02-06T03:07:26.518Z,101121.63
2023-02-06T03:10:04.948Z,101120.75
2023-02-06T03:12:46.746Z,101119.84
2023-02-06T03:15:26.651Z,101119.84
2023-02-06T03:18:16.597Z,101120.72
2023-02-06T03:20:48.055Z,101125.06
2023-02-06T03:23:25.628Z,101126.78
2023-02-06T03:25:56.412Z,101121.56
2023-02-06T03:28:31.741Z,101110.28
2023-02-06T03:31:00.986Z,101118.97
2023-02-06T03:33:34.262Z,101118.97
2023-02-06T03:36:01.246Z,101114.63
2023-02-06T03:38:28.306Z,101116.34
2023-02-06T03:40:58.024Z,101111.13
2023-02-06T03:43:27.356Z,101116.38
2023-02-06T03:45:56.647Z,101115.56
2023-02-06T03:48:37.956Z,101118.16
2023-02-06T03:51:11.676Z,101112.94
2023-02-06T03:53:39.572Z,101118.09
2023-02-06T03:56:15.817Z,101116.34
2023-02-06T03:58:42.449Z,101126.78
2023-02-06T04:01:10.999Z,101128.53
2023-02-06T04:03:37.659Z,101119.84
2023-02-06T04:06:04.314Z,101120.72
2023-02-06T04:08:30.943Z,101123.31
2023-02-06T04:10:57.616Z,101122.44
2023-02-06T04:13:24.265Z,101129.34
2023-02-06T04:15:50.948Z,101128.47
2023-02-06T04:18:17.607Z,101137.16
2023-02-06T04:20:44.221Z,101131.06
2023-02-06T04:23:10.804Z,101131.91
2023-02-06T04:25:37.663Z,101121.44
2023-02-06T04:28:04.743Z,101111.00
2023-02-06T04:30:31.378Z,101112.78
2023-02-06T04:32:58.003Z,101112.81
2023-02-06T04:35:24.647Z,101113.69
2023-02-06T04:37:51.402Z,101119.78
2023-02-06T04:40:18.259Z,101122.38
2023-02-06T04:42:44.968Z,101124.13
2023-02-06T04:45:11.680Z,101128.47
2023-02-06T04:47:38.722Z,101128.47
2023-02-06T04:50:06.059Z,101131.13
2023-02-06T04:52:32.726Z,101133.75
2023-02-06T04:54:59.304Z,101138.06
2023-02-06T04:57:26.869Z,101126.75
2023-02-06T04:59:53.579Z,101128.53
2023-02-06T05:02:20.196Z,101118.03
2023-02-06T05:04:46.799Z,101116.28
2023-02-06T05:07:13.386Z,101116.28
2023-02-06T05:09:40.113Z,101120.66
2023-02-06T05:12:06.800Z,101121.50
2023-02-06T05:14:33.407Z,101112.78
2023-02-06T05:17:00.016Z,101120.59
2023-02-06T05:19:26.700Z,101116.22
2023-02-06T05:21:53.336Z,101102.38
2023-02-06T05:24:19.983Z,101088.50
2023-02-06T05:26:46.778Z,101102.41
2023-02-06T05:29:13.472Z,101111.06
2023-02-06T05:31:40.444Z,101116.28
2023-02-06T05:34:07.139Z,101118.03
2023-02-06T05:36:33.791Z,101119.78
2023-02-06T05:39:00.388Z,101120.63
2023-02-06T05:41:27.087Z,101125.00
2023-02-06T05:43:53.725Z,101125.84
2023-02-06T05:46:20.366Z,101133.69
2023-02-06T05:48:47.054Z,101129.28
2023-02-06T05:51:13.715Z,101128.34
2023-02-06T05:53:40.371Z,101121.38
2023-02-06T05:56:07.253Z,101135.25
2023-02-06T05:58:34.220Z,101123.13
2023-02-06T06:01:00.885Z,101129.22
2023-02-06T06:03:27.616Z,101130.16
2023-02-06T06:05:54.393Z,101137.09
2023-02-06T06:08:21.707Z,101141.47
2023-02-06T06:10:51.576Z,101141.47
2023-02-06T06:13:19.006Z,101146.63
2023-02-06T06:15:45.678Z,101144.06
2023-02-06T06:18:12.364Z,101145.81
2023-02-06T06:20:38.959Z,101151.03
2023-02-06T06:23:05.614Z,101151.03
2023-02-06T06:25:32.248Z,101142.34
2023-02-06T06:27:58.874Z,101147.56
2023-02-06T06:30:25.492Z,101141.47
2023-02-06T06:32:52.599Z,101141.53
2023-02-06T06:35:19.703Z,101134.56
2023-02-06T06:37:46.314Z,101142.41
2023-02-06T06:40:12.983Z,101147.63
2023-02-06T06:42:39.776Z,101147.56
2023-02-06T06:45:07.562Z,101146.75
2023-02-06T06:47:34.219Z,101151.13
2023-02-06T06:50:00.832Z,101157.25
2023-02-06T06:52:27.451Z,101158.13
2023-02-06T06:54:54.521Z,101166.81
2023-02-06T06:57:22.523Z,101169.44
2023-02-06T06:59:49.586Z,101162.47
2023-02-06T07:02:16.903Z,101163.34
2023-02-06T07:04:44.015Z,101159.88
2023-02-06T07:07:10.714Z,101170.31
2023-02-06T07:09:37.435Z,101166.81
2023-02-06T07:12:04.429Z,101172.94
2023-02-06T07:14:31.164Z,101159.06
2023-02-06T07:16:59.269Z,101166.13
2023-02-06T07:19:25.980Z,101163.47
2023-02-06T07:21:52.612Z,101156.53
2023-02-06T07:24:19.290Z,101156.59
2023-02-06T07:26:45.943Z,101159.16
2023-02-06T07:29:12.607Z,101163.56
2023-02-06T07:31:39.238Z,101160.94
2023-02-06T07:34:05.952Z,101161.78
2023-02-06T07:36:32.655Z,101167.84
2023-02-06T07:38:59.324Z,101160.00
2023-02-06T07:41:25.971Z,101156.50
2023-02-06T07:43:54.273Z,101163.50
2023-02-06T07:46:21.167Z,101160.00
2023-02-06T07:48:47.953Z,101163.41
2023-02-06T07:51:14.571Z,101165.09
2023-02-06T07:53:41.245Z,101169.38
2023-02-06T07:56:16.870Z,101170.19
2023-02-06T07:58:43.648Z,101165.78
2023-02-06T08:01:10.823Z,101170.06
2023-02-06T08:03:37.696Z,101168.22
2023-02-06T08:06:09.376Z,101160.34
2023-02-06T08:08:36.076Z,101157.66
2023-02-06T08:11:07.164Z,101162.00
2023-02-06T08:13:35.113Z,101167.25
2023-02-06T08:16:11.502Z,101168.06
2023-02-06T08:18:38.901Z,101162.78
2023-02-06T08:21:07.742Z,101158.41
2023-02-06T08:23:34.392Z,101156.63
2023-02-06T08:26:15.964Z,101153.91
2023-02-06T08:28:44.536Z,101154.84
2023-02-06T08:31:38.608Z,101152.19
2023-02-06T08:34:06.931Z,101158.31
2023-02-06T08:36:34.051Z,101154.78
2023-02-06T08:39:02.738Z,101144.28
2023-02-06T08:41:32.795Z,101141.66
2023-02-06T08:44:02.229Z,101136.38
2023-02-06T08:46:29.685Z,101134.56
2023-02-06T08:48:58.571Z,101127.63
2023-02-06T08:51:28.470Z,101123.25
2023-02-06T08:53:59.879Z,101124.13
2023-02-06T08:56:27.805Z,101104.84
2023-02-06T08:58:54.972Z,101103.94
2023-02-06T09:01:21.780Z,101104.78
2023-02-06T09:03:48.849Z,101104.72
2023-02-06T09:06:16.686Z,101102.94
2023-02-06T09:08:44.657Z,101102.03
2023-02-06T09:11:17.032Z,101105.56
2023-02-06T09:13:49.248Z,101101.22
2023-02-06T09:16:19.308Z,101101.06
2023-02-06T09:18:46.244Z,101096.59
2023-02-06T09:21:18.427Z,101098.25
2023-02-06T09:23:50.209Z,101086.81
2023-02-06T09:26:20.452Z,101092.91
2023-02-06T09:28:47.506Z,101094.75
2023-02-06T09:31:14.375Z,101092.16
2023-02-06T09:33:41.058Z,101092.25
2023-02-06T09:36:13.328Z,101093.28
2023-02-06T09:38:43.218Z,101099.38
2023-02-06T09:41:21.318Z,101106.28
2023-02-06T09:43:54.640Z,101102.06
2023-02-06T09:46:28.233Z,101107.31
2023-02-06T09:48:57.390Z,101112.41
2023-02-06T09:51:40.044Z,101111.47
2023-02-06T09:54:23.220Z,101121.09
2023-02-06T09:56:50.008Z,101116.72
2023-02-06T09:59:28.696Z,101114.81
2023-02-06T10:02:13.664Z,101127.06
2023-02-06T10:04:58.587Z,101134.09
2023-02-06T10:07:31.043Z,101135.84
2023-02-06T10:10:47.531Z,101129.56
2023-02-06T10:13:32.709Z,101120.03
2023-02-06T10:16:32.513Z,101116.56
2023-02-06T10:19:09.615Z,101111.28
2023-02-06T10:21:42.625Z,101091.34
2023-02-06T10:24:36.746Z,101095.63
2023-02-06T10:27:09.052Z,101078.94
2023-02-06T10:29:36.481Z,101077.31
2023-02-06T10:32:40.360Z,101069.34
2023-02-06T10:35:31.778Z,101070.06
2023-02-06T10:38:16.528Z,101069.09
2023-02-06T10:41:04.369Z,101060.44
2023-02-06T10:43:44.025Z,101075.34
2023-02-06T10:46:29.218Z,101069.16
2023-02-06T10:49:05.475Z,101062.16
2023-02-06T10:51:45.604Z,101061.31
2023-02-06T10:54:18.434Z,101077.03
2023-02-06T10:56:47.862Z,101078.00
2023-02-06T10:59:14.265Z,101080.78
2023-02-06T11:01:44.128Z,101087.88
2023-02-06T11:04:15.512Z,101081.78
2023-02-06T11:06:43.223Z,101070.34
2023-02-06T11:09:10.704Z,101064.31
2023-02-06T11:11:40.486Z,101060.66
2023-02-06T11:14:25.241Z,101047.59
2023-02-06T11:16:52.732Z,101058.00
2023-02-06T11:19:26.226Z,101069.34
2023-02-06T11:22:17.271Z,101073.69
2023-02-06T11:25:04.547Z,101065.69
2023-02-06T11:27:33.672Z,101058.75
2023-02-06T11:30:07.794Z,101046.56
2023-02-06T11:32:36.761Z,101051.78
2023-02-06T11:35:15.201Z,101043.13
2023-02-06T11:37:42.146Z,101050.19
2023-02-06T11:40:21.068Z,101058.03
2023-02-06T11:42:49.872Z,101055.34
2023-02-06T11:45:28.496Z,101051.94
2023-02-06T11:47:55.294Z,101050.16
2023-02-06T11:50:28.755Z,101058.97
2023-02-06T11:53:09.291Z,101051.06
2023-02-06T11:55:38.406Z,101045.88
2023-02-06T11:58:14.099Z,101046.81
2023-02-06T12:00:41.765Z,101050.25
2023-02-06T12:03:26.833Z,101036.31
2023-02-06T12:05:55.499Z,101037.19
2023-02-06T12:08:26.632Z,101036.25
2023-02-06T12:11:00.186Z,101029.47
2023-02-06T12:13:33.820Z,101018.81
2023-02-06T12:16:04.095Z,101020.59
2023-02-06T12:18:37.070Z,101019.75
2023-02-06T12:21:08.528Z,101024.84
2023-02-06T12:23:40.878Z,101026.72
2023-02-06T12:26:12.077Z,101019.66
2023-02-06T12:28:50.745Z,101015.31
2023-02-06T12:31:26.040Z,101016.25
2023-02-06T12:34:00.737Z,101024.09
2023-02-06T12:37:10.430Z,101020.59
2023-02-06T12:39:37.422Z,101013.56
2023-02-06T12:42:12.563Z,101013.53
2023-02-06T12:44:57.484Z,101011.81
2023-02-06T12:47:27.458Z,101013.56
2023-02-06T12:50:06.170Z,101014.50
2023-02-06T12:52:48.258Z,101004.03
2023-02-06T12:55:21.237Z,100999.69
2023-02-06T12:57:47.988Z,101009.97
2023-02-06T13:00:32.800Z,101009.94
2023-02-06T13:03:26.084Z,101001.13
2023-02-06T13:06:34.205Z,101011.56
2023-02-06T13:09:02.270Z,101019.41
2023-02-06T13:11:35.883Z,101017.78
2023-02-06T13:14:19.519Z,101019.66
2023-02-06T13:16:55.306Z,101022.28
2023-02-06T13:19:39.172Z,101023.84
2023-02-06T13:22:13.093Z,101016.84
2023-02-06T13:24:50.251Z,101012.44
2023-02-06T13:27:40.218Z,101004.53
2023-02-06T13:30:31.567Z,101014.19
2023-02-06T13:33:17.550Z,101015.94
2023-02-06T13:35:56.386Z,101018.50
2023-02-06T13:38:22.938Z,101020.38
2023-02-06T13:41:13.123Z,101022.28
2023-02-06T13:44:05.229Z,101032.72
2023-02-06T13:46:37.918Z,101030.09
2023-02-06T13:49:25.972Z,101032.81
2023-02-06T13:52:18.770Z,101038.22
2023-02-06T13:54:55.374Z,101050.41
2023-02-06T13:57:43.709Z,101055.72
2023-02-06T14:00:25.799Z,101060.22
2023-02-06T14:03:06.130Z,101062.00
2023-02-06T14:05:51.641Z,101073.31
2023-02-06T14:08:38.337Z,101072.44
2023-02-06T14:11:23.392Z,101069.03
2023-02-06T14:14:14.650Z,101069.06
2023-02-06T14:16:52.579Z,101076.94
2023-02-06T14:19:28.886Z,101076.13
2023-02-06T14:22:13.946Z,101076.09
2023-02-06T14:25:17.585Z,101068.19
2023-02-06T14:27:56.074Z,101051.78
2023-02-06T14:30:50.468Z,101062.25
2023-02-06T14:33:44.735Z,101061.31
2023-02-06T14:36:11.274Z,101055.31
2023-02-06T14:39:15.088Z,101051.81
2023-02-06T14:41:42.254Z,101062.28
2023-02-06T14:44:13.190Z,101067.44
2023-02-06T14:46:42.136Z,101065.75
2023-02-06T14:49:17.408Z,101073.69
2023-02-06T14:51:49.669Z,101072.78
2023-02-06T14:54:34.357Z,101081.41
2023-02-06T14:57:05.600Z,101080.50
2023-02-06T14:59:32.988Z,101076.22
2023-02-06T15:02:11.384Z,101082.44
2023-02-06T15:04:46.294Z,101081.53
2023-02-06T15:07:24.130Z,101092.91
2023-02-06T15:10:01.199Z,101080.75
2023-02-06T15:12:29.222Z,101080.81
2023-02-06T15:15:02.805Z,101088.66
2023-02-06T15:17:31.180Z,101088.66
2023-02-06T15:20:23.229Z,101087.88
2023-02-06T15:22:51.093Z,101091.41
2023-02-06T15:25:45.200Z,101088.81
2023-02-06T15:28:18.982Z,101093.16
2023-02-06T15:30:46.657Z,101090.53
2023-02-06T15:33:24.127Z,101085.34
2023-02-06T15:35:53.217Z,101087.16
2023-02-06T15:38:22.009Z,101098.47
2023-02-06T15:40:56.040Z,101090.63
2023-02-06T15:43:25.470Z,101096.84
2023-02-06T15:45:57.112Z,101095.13
2023-02-06T15:48:51.391Z,101101.25
2023-02-06T15:51:29.594Z,101102.16
2023-02-06T15:54:19.545Z,101110.94
2023-02-06T15:57:05.825Z,101105.66
2023-02-06T15:59:39.854Z,101108.31
2023-02-06T16:02:08.053Z,101104.84
2023-02-06T16:04:38.487Z,101109.19
2023-02-06T16:07:23.659Z,101110.94
2023-02-06T16:09:59.764Z,101097.88
2023-02-06T16:12:26.495Z,101088.31
2023-02-06T16:15:00.907Z,101093.59
2023-02-06T16:17:33.993Z,101089.25
2023-02-06T16:20:04.580Z,101102.31
2023-02-06T16:22:38.325Z,101111.00
2023-02-06T16:25:13.845Z,101118.78
2023-02-06T16:27:45.853Z,101122.34
2023-02-06T16:30:35.441Z,101125.84
2023-02-06T16:33:26.969Z,101131.09
2023-02-06T16:35:53.577Z,101127.59
2023-02-06T16:38:20.207Z,101133.66
2023-02-06T16:40:49.660Z,101136.31
2023-02-06T16:43:16.311Z,101132.81
2023-02-06T16:45:43.001Z,101125.81
2023-02-06T16:48:14.319Z,101131.91
2023-02-06T16:50:42.034Z,101134.56
2023-02-06T16:53:20.253Z,101151.06
2023-02-06T16:55:47.436Z,101151.91
2023-02-06T16:58:19.178Z,101152.84
2023-02-06T17:00:46.815Z,101149.38
2023-02-06T17:03:16.309Z,101145.88
2023-02-06T17:05:47.760Z,101142.41
2023-02-06T17:08:20.580Z,101142.34
2023-02-06T17:10:48.103Z,101140.66
2023-02-06T17:13:17.184Z,101131.16
2023-02-06T17:15:44.236Z,101120.72
2023-02-06T17:18:14.029Z,101131.13
2023-02-06T17:20:42.765Z,101133.75
2023-02-06T17:23:12.761Z,101141.56
2023-02-06T17:25:40.723Z,101141.59
2023-02-06T17:28:09.264Z,101144.19
2023-02-06T17:30:38.029Z,101145.94
2023-02-06T17:33:06.354Z,101157.25
2023-02-06T17:35:33.878Z,101167.69
2023-02-06T17:38:00.505Z,101169.44
2023-02-06T17:40:30.374Z,101163.28
2023-02-06T17:42:59.016Z,101157.25
2023-02-06T17:45:26.388Z,101154.66
2023-02-06T17:47:53.482Z,101147.75
2023-02-06T17:50:22.884Z,101159.03
2023-02-06T17:52:52.689Z,101153.84
2023-02-06T17:55:19.514Z,101149.53
2023-02-06T17:57:46.085Z,101144.38
2023-02-06T18:00:15.827Z,101153.94
2023-02-06T18:02:42.855Z,101149.59
2023-02-06T18:05:10.224Z,101159.97
2023-02-06T18:07:40.287Z,101156.50
2023-02-06T18:10:07.910Z,101151.31
2023-02-06T18:12:34.719Z,101156.50
2023-02-06T18:15:01.551Z,101162.59
2023-02-06T18:17:28.152Z,101167.81
2023-02-06T18:19:54.828Z,101162.59
2023-02-06T18:22:22.248Z,101163.44
2023-02-06T18:24:50.163Z,101159.88
2023-02-06T18:27:17.942Z,101158.19
2023-02-06T18:29:50.547Z,101164.25
2023-02-06T18:32:18.570Z,101167.72
2023-02-06T18:34:46.042Z,101180.75
2023-02-06T18:37:12.763Z,101177.31
2023-02-06T18:39:39.721Z,101172.06
2023-02-06T18:42:25.237Z,101166.06
2023-02-06T18:44:51.933Z,101158.25
2023-02-06T18:47:19.783Z,101158.19
2023-02-06T18:49:46.891Z,101158.22
2023-02-06T18:52:14.422Z,101156.50
2023-02-06T18:54:41.130Z,101166.00
2023-02-06T18:57:08.367Z,101159.97
2023-02-06T18:59:35.240Z,101167.00
2023-02-06T19:02:02.921Z,101156.59
2023-02-06T19:04:29.848Z,101161.78
2023-02-06T19:06:56.542Z,101160.84
2023-02-06T19:09:23.201Z,101164.38
2023-02-06T19:11:49.798Z,101165.25
2023-02-06T19:14:18.087Z,101174.00
2023-02-06T19:16:47.472Z,101163.59
2023-02-06T19:19:14.618Z,101171.47
2023-02-06T19:21:43.378Z,101167.97
2023-02-06T19:24:15.183Z,101164.47
2023-02-06T19:26:42.248Z,101168.84
2023-02-06T19:29:09.677Z,101172.31
2023-02-06T19:31:39.214Z,101174.09
2023-02-06T19:34:06.662Z,101176.66
2023-02-06T19:36:33.433Z,101168.00
2023-02-06T19:39:03.037Z,101167.09
2023-02-06T19:41:32.753Z,101159.31
2023-02-06T19:44:04.743Z,101158.44
2023-02-06T19:46:31.839Z,101153.22
2023-02-06T19:48:58.622Z,101159.31
2023-02-06T19:51:28.762Z,101159.25
2023-02-06T19:53:56.970Z,101163.63
2023-02-06T19:56:26.960Z,101151.44
2023-02-06T19:59:04.865Z,101149.69
2023-02-06T20:01:32.536Z,101147.94
2023-02-06T20:04:00.683Z,101144.47
2023-02-06T20:06:29.476Z,101160.13
2023-02-06T20:08:57.228Z,101161.88
2023-02-06T20:11:23.987Z,101170.53
2023-02-06T20:13:55.606Z,101176.56
2023-02-06T20:16:25.732Z,101160.94
2023-02-06T20:18:53.876Z,101170.53
2023-02-06T20:21:23.672Z,101174.81
2023-02-06T20:23:50.813Z,101179.16
2023-02-06T20:26:19.746Z,101171.34
2023-02-06T20:28:47.325Z,101164.34
2023-02-06T20:31:16.225Z,101167.00
2023-02-06T20:33:43.487Z,101166.16
2023-02-06T20:36:14.765Z,101169.69
2023-02-06T20:38:42.203Z,101172.34
2023-02-06T20:41:10.079Z,101179.31
2023-02-06T20:43:37.226Z,101171.50
2023-02-06T20:46:06.516Z,101167.22
2023-02-06T20:48:36.377Z,101174.16
2023-02-06T20:51:05.919Z,101182.78
2023-02-06T20:53:32.637Z,101191.50
2023-02-06T20:55:59.384Z,101190.66
2023-02-06T20:58:26.124Z,101184.63
2023-02-06T21:00:53.718Z,101181.16
2023-02-06T21:03:20.638Z,101188.19
2023-02-06T21:05:57.685Z,101196.88
2023-02-06T21:08:25.617Z,101203.88
2023-02-06T21:10:53.200Z,101202.09
2023-02-06T21:13:20.015Z,101191.66
2023-02-06T21:15:52.606Z,101210.81
2023-02-06T21:18:20.632Z,101209.13
2023-02-06T21:20:47.412Z,101209.13
2023-02-06T21:23:14.295Z,101209.13
2023-02-06T21:25:41.754Z,101214.38
2023-02-06T21:28:09.602Z,101210.00
2023-02-06T21:30:36.774Z,101213.53
2023-02-06T21:33:03.699Z,101219.59
2023-02-06T21:35:32.793Z,101237.03
2023-02-06T21:37:59.898Z,101249.19
2023-02-06T21:40:26.545Z,101245.69
2023-02-06T21:42:53.158Z,101250.03
2023-02-06T21:45:19.898Z,101256.13
2023-02-06T21:47:48.341Z,101263.09
2023-02-06T21:50:15.137Z,101262.25
2023-02-06T21:52:42.389Z,101252.69
2023-02-06T21:55:09.114Z,101258.78
2023-02-06T21:57:35.764Z,101257.03
2023-02-06T22:00:02.406Z,101258.78
2023-02-06T22:02:29.119Z,101257.06
2023-02-06T22:04:55.772Z,101261.38
2023-02-06T22:07:22.418Z,101258.81
2023-02-06T22:09:49.092Z,101277.06
2023-02-06T22:12:15.696Z,101277.03
2023-02-06T22:14:42.306Z,101280.50
2023-02-06T22:17:09.001Z,101277.03
2023-02-06T22:19:37.723Z,101280.50
2023-02-06T22:22:04.450Z,101264.88
2023-02-06T22:24:31.196Z,101285.72
2023-02-06T22:26:57.804Z,101280.53
2023-02-06T22:29:24.604Z,101274.47
2023-02-06T22:31:51.347Z,101292.69
2023-02-06T22:34:20.998Z,101289.22
2023-02-06T22:36:50.604Z,101295.28
2023-02-06T22:39:17.832Z,101293.56
2023-02-06T22:41:45.856Z,101291.84
2023-02-06T22:44:16.717Z,101287.47
2023-02-06T22:46:50.108Z,101282.28
2023-02-06T22:49:17.492Z,101293.56
2023-02-06T22:51:44.754Z,101292.72
2023-02-06T22:54:12.672Z,101301.41
2023-02-06T22:56:41.170Z,101300.53
2023-02-06T22:59:37.206Z,101305.72
2023-02-06T23:02:04.354Z,101311.81
2023-02-06T23:04:36.196Z,101317.03
2023-02-06T23:07:02.963Z,101302.28
2023-02-06T23:09:35.282Z,101291.00
2023-02-06T23:12:03.044Z,101286.66
2023-02-06T23:14:32.093Z,101297.97
2023-02-06T23:17:02.412Z,101303.16
2023-02-06T23:19:29.568Z,101306.63
2023-02-06T23:21:56.287Z,101308.38
2023-02-06T23:24:23.042Z,101310.13
2023-02-06T23:26:51.009Z,101309.22
2023-02-06T23:29:21.540Z,101318.78
2023-02-06T23:31:49.132Z,101327.47
2023-02-06T23:34:17.635Z,101327.47
2023-02-06T23:36:45.154Z,101329.19
2023-02-06T23:39:12.053Z,101337.03
2023-02-06T23:41:38.883Z,101342.22
2023-02-06T23:44:08.119Z,101334.41
2023-02-06T23:46:36.735Z,101340.50
2023-02-06T23:49:04.331Z,101337.88
2023-02-06T23:51:31.989Z,101339.63
2023-02-06T23:53:59.287Z,101337.88
2023-02-06T23:56:28.545Z,101342.22
2023-02-06T23:58:57.333Z,101332.66
